createdAt,value
2023-04-03T00:02:25.377Z,6.00
2023-04-03T00:04:53.265Z,6.00
2023-04-03T00:07:21.295Z,6.40
2023-04-03T00:09:49.186Z,6.13
2023-04-03T00:12:18.564Z,6.13
2023-04-03T00:14:46.407Z,6.00
2023-04-03T00:17:15.391Z,6.23
2023-04-03T00:19:43.257Z,6.00
2023-04-03T00:22:11.152Z,6.47
2023-04-03T00:24:39.064Z,6.33
2023-04-03T00:27:06.954Z,6.00
2023-04-03T00:29:36.197Z,6.47
2023-04-03T00:32:04.136Z,6.10
2023-04-03T00:34:32.148Z,6.53
2023-04-03T00:37:00.182Z,6.20
2023-04-03T00:39:28.294Z,6.37
2023-04-03T00:41:56.383Z,6.60
2023-04-03T00:44:24.716Z,6.03
2023-04-03T00:46:53.933Z,5.80
2023-04-03T00:49:21.809Z,6.13
2023-04-03T00:51:49.675Z,6.20
2023-04-03T00:54:17.752Z,5.63
2023-04-03T00:56:45.674Z,6.17
2023-04-03T00:59:14.616Z,5.87
2023-04-03T01:01:42.474Z,5.80
2023-04-03T01:04:30.200Z,6.10
2023-04-03T01:06:58.592Z,6.50
2023-04-03T01:09:26.424Z,5.53
2023-04-03T01:11:54.304Z,6.10
2023-04-03T01:14:22.241Z,5.53
2023-04-03T01:16:55.109Z,5.63
2023-04-03T01:19:23.062Z,5.67
2023-04-03T01:22:05.880Z,5.87
2023-04-03T01:24:35.205Z,6.00
2023-04-03T01:27:03.693Z,5.70
2023-04-03T01:29:31.563Z,6.03
2023-04-03T01:32:01.275Z,5.97
2023-04-03T01:34:29.276Z,4.97
2023-04-03T01:36:57.331Z,5.03
2023-04-03T01:39:25.255Z,5.63
2023-04-03T01:41:53.139Z,5.33
2023-04-03T01:44:21.008Z,6.07
2023-04-03T01:46:48.888Z,5.83
2023-04-03T01:49:18.232Z,6.00
2023-04-03T01:51:46.139Z,5.70
2023-04-03T01:54:14.194Z,5.07
2023-04-03T01:56:42.162Z,5.17
2023-04-03T01:59:10.190Z,5.60
2023-04-03T02:01:38.166Z,5.37
2023-04-03T02:04:06.590Z,5.57
2023-04-03T02:06:35.979Z,5.63
2023-04-03T02:09:03.915Z,5.23
2023-04-03T02:11:31.968Z,4.73
2023-04-03T02:13:59.859Z,5.77
2023-04-03T02:16:27.841Z,5.37
2023-04-03T02:18:55.787Z,5.47
2023-04-03T02:21:23.695Z,5.20
2023-04-03T02:23:52.952Z,5.20
2023-04-03T02:26:20.833Z,5.20
2023-04-03T02:28:48.682Z,5.30
2023-04-03T02:31:16.609Z,5.07
2023-04-03T02:33:44.567Z,5.43
2023-04-03T02:36:12.459Z,5.73
2023-04-03T02:38:40.365Z,5.33
2023-04-03T02:41:10.474Z,4.70
2023-04-03T02:43:38.361Z,5.70
2023-04-03T02:46:06.455Z,5.07
2023-04-03T02:48:34.513Z,5.40
2023-04-03T02:51:03.140Z,4.63
2023-04-03T02:53:31.015Z,4.97
2023-04-03T02:55:58.901Z,4.90
2023-04-03T02:58:28.152Z,5.13
2023-04-03T03:00:56.002Z,5.20
2023-04-03T03:03:24.056Z,4.93
2023-04-03T03:05:51.920Z,4.70
2023-04-03T03:08:21.290Z,4.83
2023-04-03T03:10:49.183Z,5.00
2023-04-03T03:13:17.044Z,4.63
2023-04-03T03:15:46.315Z,3.97
2023-04-03T03:18:14.198Z,4.37
2023-04-03T03:20:42.066Z,4.30
2023-04-03T03:23:09.966Z,4.50
2023-04-03T03:25:40.131Z,4.30
2023-04-03T03:28:08.075Z,4.63
2023-04-03T03:30:36.174Z,5.10
2023-04-03T03:33:05.463Z,4.00
2023-04-03T03:35:33.460Z,4.03
2023-04-03T03:38:01.565Z,4.60
2023-04-03T03:40:29.432Z,5.07
2023-04-03T03:42:57.267Z,4.53
2023-04-03T03:45:25.624Z,4.47
2023-04-03T03:47:53.489Z,4.37
2023-04-03T03:50:22.748Z,4.40
2023-04-03T03:52:50.745Z,4.10
2023-04-03T03:55:18.790Z,3.90
2023-04-03T03:57:46.724Z,4.00
2023-04-03T04:00:15.476Z,4.47
2023-04-03T04:02:43.459Z,4.40
2023-04-03T04:05:11.416Z,4.60
2023-04-03T04:07:40.664Z,4.77
2023-04-03T04:10:09.653Z,5.03
2023-04-03T04:12:37.649Z,4.30
2023-04-03T04:15:06.212Z,4.60
2023-04-03T04:17:35.635Z,4.97
2023-04-03T04:20:03.765Z,3.97
2023-04-03T04:22:31.666Z,4.60
2023-04-03T04:25:00.867Z,4.60
2023-04-03T04:27:28.801Z,4.37
2023-04-03T04:29:58.795Z,4.00
2023-04-03T04:32:27.256Z,3.87
2023-04-03T04:34:55.308Z,4.27
2023-04-03T04:37:23.239Z,4.07
2023-04-03T04:39:51.107Z,4.33
2023-04-03T04:42:20.401Z,4.20
2023-04-03T04:44:48.262Z,4.03
2023-04-03T04:47:16.245Z,4.30
2023-04-03T04:49:44.152Z,4.40
2023-04-03T04:52:11.998Z,4.80
2023-04-03T04:54:39.874Z,4.60
2023-04-03T04:57:07.823Z,5.00
2023-04-03T04:59:37.081Z,5.20
2023-04-03T05:02:05.007Z,5.27
2023-04-03T05:04:34.301Z,4.83
2023-04-03T05:07:02.246Z,4.50
2023-04-03T05:09:30.136Z,4.70
2023-04-03T05:11:58.071Z,5.00
2023-04-03T05:14:26.159Z,5.57
2023-04-03T05:16:55.583Z,5.17
2023-04-03T05:19:23.458Z,5.60
2023-04-03T05:21:51.334Z,5.20
2023-04-03T05:24:20.296Z,5.67
2023-04-03T05:26:48.200Z,5.83
2023-04-03T05:29:16.155Z,5.87
2023-04-03T05:31:44.103Z,5.47
2023-04-03T05:34:13.546Z,6.47
2023-04-03T05:36:41.416Z,5.23
2023-04-03T05:39:09.359Z,5.87
2023-04-03T05:41:37.246Z,5.33
2023-04-03T05:44:05.153Z,5.80
2023-04-03T05:46:33.146Z,5.47
2023-04-03T05:49:01.306Z,5.00
2023-04-03T05:51:35.821Z,5.30
2023-04-03T05:54:07.122Z,5.33
2023-04-03T05:56:35.031Z,5.80
2023-04-03T05:59:02.994Z,5.67
2023-04-03T06:01:30.918Z,4.70
2023-04-03T06:04:00.072Z,5.23
2023-04-03T06:06:28.166Z,5.70
2023-04-03T06:08:57.650Z,5.60
2023-04-03T06:11:25.536Z,4.93
2023-04-03T06:13:53.443Z,5.63
2023-04-03T06:16:22.126Z,5.27
2023-04-03T06:18:50.257Z,5.17
2023-04-03T06:21:18.147Z,5.23
2023-04-03T06:23:46.091Z,5.57
2023-04-03T06:26:15.940Z,5.83
2023-04-03T06:28:43.843Z,4.97
2023-04-03T06:31:11.847Z,4.67
2023-04-03T06:33:39.827Z,5.47
2023-04-03T06:36:08.804Z,4.63
2023-04-03T06:38:37.337Z,4.60
2023-04-03T06:41:05.336Z,5.60
2023-04-03T06:43:34.987Z,4.83
2023-04-03T06:46:03.191Z,4.60
2023-04-03T06:48:31.133Z,4.30
2023-04-03T06:50:59.290Z,4.83
2023-04-03T06:53:27.537Z,4.70
2023-04-03T06:55:55.500Z,4.70
2023-04-03T06:58:25.997Z,4.57
2023-04-03T07:00:55.729Z,5.77
2023-04-03T07:03:26.243Z,4.90
2023-04-03T07:05:54.472Z,5.20
2023-04-03T07:08:23.987Z,4.67
2023-04-03T07:10:52.356Z,4.93
2023-04-03T07:13:20.649Z,5.00
2023-04-03T07:15:49.892Z,6.00
2023-04-03T07:18:19.429Z,5.13
2023-04-03T07:20:47.542Z,5.03
2023-04-03T07:23:16.132Z,5.17
2023-04-03T07:25:45.495Z,4.17
2023-04-03T07:28:14.788Z,5.00
2023-04-03T07:30:47.092Z,4.43
2023-04-03T07:33:15.767Z,4.67
2023-04-03T07:35:45.865Z,5.07
2023-04-03T07:38:13.873Z,5.20
2023-04-03T07:40:42.288Z,4.90
2023-04-03T07:43:10.310Z,4.60
2023-04-03T07:45:38.382Z,4.77
2023-04-03T07:48:07.317Z,4.97
2023-04-03T07:50:35.700Z,4.93
2023-04-03T07:53:05.045Z,5.00
2023-04-03T07:55:35.118Z,4.90
2023-04-03T07:58:03.211Z,4.77
2023-04-03T08:00:31.270Z,4.57
2023-04-03T08:02:59.283Z,4.43
2023-04-03T08:05:27.439Z,5.03
2023-04-03T08:07:55.358Z,4.67
2023-04-03T08:10:24.650Z,4.97
2023-04-03T08:12:52.713Z,5.07
2023-04-03T08:15:21.524Z,4.23
2023-04-03T08:17:49.717Z,5.10
2023-04-03T08:20:18.444Z,4.70
2023-04-03T08:22:46.472Z,4.97
2023-04-03T08:25:14.664Z,5.10
2023-04-03T08:27:43.928Z,4.17
2023-04-03T08:30:12.771Z,4.50
2023-04-03T08:32:42.904Z,4.77
2023-04-03T08:35:11.709Z,5.10
2023-04-03T08:37:39.841Z,4.63
2023-04-03T08:40:08.860Z,4.90
2023-04-03T08:42:42.883Z,5.23
2023-04-03T08:45:13.096Z,5.00
2023-04-03T08:47:42.840Z,5.17
2023-04-03T08:50:14.147Z,4.83
2023-04-03T08:52:44.085Z,5.17
2023-04-03T08:55:19.879Z,5.10
2023-04-03T08:57:48.186Z,5.30
2023-04-03T09:00:21.463Z,5.57
2023-04-03T09:02:50.111Z,5.73
2023-04-03T09:05:19.005Z,5.80
2023-04-03T09:07:50.088Z,6.27
2023-04-03T09:10:20.639Z,5.23
2023-04-03T09:12:50.291Z,5.03
2023-04-03T09:15:35.404Z,4.93
2023-04-03T09:18:08.026Z,4.53
2023-04-03T09:20:42.664Z,5.40
2023-04-03T09:23:20.883Z,5.23
2023-04-03T09:25:49.187Z,5.20
2023-04-03T09:28:19.796Z,5.03
2023-04-03T09:30:49.100Z,5.20
2023-04-03T09:33:17.591Z,5.23
2023-04-03T09:35:49.045Z,5.17
2023-04-03T09:38:19.359Z,4.73
2023-04-03T09:40:47.591Z,4.70
2023-04-03T09:43:30.186Z,5.13
2023-04-03T09:46:20.980Z,4.57
2023-04-03T09:49:05.169Z,4.30
2023-04-03T09:51:36.819Z,4.53
2023-04-03T09:54:27.216Z,3.90
2023-04-03T09:56:55.269Z,3.70
2023-04-03T09:59:23.189Z,3.80
2023-04-03T10:02:00.893Z,3.80
2023-04-03T10:04:38.761Z,3.67
2023-04-03T10:07:06.805Z,3.97
2023-04-03T10:09:35.025Z,5.10
2023-04-03T10:12:05.708Z,3.83
2023-04-03T10:14:33.976Z,3.70
2023-04-03T10:17:07.962Z,3.90
2023-04-03T10:19:38.801Z,3.73
2023-04-03T10:22:09.567Z,3.27
2023-04-03T10:24:41.065Z,2.90
2023-04-03T10:27:10.727Z,3.60
2023-04-03T10:29:42.040Z,3.40
2023-04-03T10:32:29.929Z,3.07
2023-04-03T10:35:05.110Z,3.13
2023-04-03T10:37:38.450Z,2.73
2023-04-03T10:40:12.736Z,3.17
2023-04-03T10:42:43.039Z,2.30
2023-04-03T10:45:21.242Z,2.60
2023-04-03T10:47:55.957Z,3.13
2023-04-03T10:50:34.281Z,3.43
2023-04-03T10:53:05.446Z,2.40
2023-04-03T10:55:37.894Z,2.30
2023-04-03T10:58:06.584Z,3.17
2023-04-03T11:00:38.960Z,3.10
2023-04-03T11:03:11.298Z,2.30
2023-04-03T11:05:41.678Z,1.90
2023-04-03T11:08:13.633Z,2.20
2023-04-03T11:10:43.424Z,2.13
2023-04-03T11:13:14.860Z,2.30
2023-04-03T11:15:43.416Z,1.97
2023-04-03T11:18:14.911Z,1.90
2023-04-03T11:20:44.313Z,2.10
2023-04-03T11:23:16.332Z,2.10
2023-04-03T11:25:45.705Z,2.30
2023-04-03T11:28:14.689Z,2.33
2023-04-03T11:30:53.560Z,2.00
2023-04-03T11:33:35.025Z,2.20
2023-04-03T11:36:12.536Z,2.30
2023-04-03T11:38:48.096Z,2.27
2023-04-03T11:41:16.905Z,6.37
2023-04-03T11:43:47.957Z,2.47
2023-04-03T11:46:17.424Z,2.70
2023-04-03T11:48:52.321Z,3.00
2023-04-03T11:51:43.777Z,2.17
2023-04-03T11:54:51.763Z,3.00
2023-04-03T11:57:47.809Z,2.60
2023-04-03T12:00:53.769Z,2.65
2023-04-03T12:04:03.964Z,2.47
2023-04-03T12:07:14.802Z,2.45
2023-04-03T12:10:03.548Z,2.20
2023-04-03T12:12:39.643Z,2.42
2023-04-03T12:15:55.330Z,2.40
2023-04-03T12:19:04.075Z,2.90
2023-04-03T12:22:08.562Z,3.30
2023-04-03T12:24:36.906Z,3.30
2023-04-03T12:27:08.098Z,2.80
2023-04-03T12:29:41.355Z,2.38
2023-04-03T12:32:15.192Z,2.75
2023-04-03T12:34:53.022Z,2.50
2023-04-03T12:37:32.148Z,2.58
2023-04-03T12:40:06.965Z,2.10
2023-04-03T12:42:55.425Z,1.80
2023-04-03T12:45:23.983Z,2.10
2023-04-03T12:47:53.258Z,1.98
2023-04-03T12:50:25.487Z,2.05
2023-04-03T12:53:02.706Z,1.90
2023-04-03T12:55:30.772Z,2.33
2023-04-03T12:57:59.082Z,1.98
2023-04-03T13:00:35.386Z,2.15
2023-04-03T13:03:04.401Z,2.20
2023-04-03T13:05:34.573Z,2.15
2023-04-03T13:08:06.807Z,2.03
2023-04-03T13:10:34.965Z,2.33
2023-04-03T13:13:12.002Z,2.28
2023-04-03T13:15:44.537Z,2.97
2023-04-03T13:18:27.789Z,2.90
2023-04-03T13:20:58.689Z,3.28
2023-04-03T13:23:28.325Z,3.10
2023-04-03T13:26:03.750Z,2.90
2023-04-03T13:28:32.077Z,3.33
2023-04-03T13:31:06.689Z,3.13
2023-04-03T13:33:38.801Z,3.53
2023-04-03T13:36:08.031Z,2.92
2023-04-03T13:38:37.960Z,3.15
2023-04-03T13:41:08.652Z,3.58
2023-04-03T13:43:37.603Z,3.53
2023-04-03T13:46:08.671Z,3.83
2023-04-03T13:48:41.347Z,3.55
2023-04-03T13:51:19.612Z,3.25
2023-04-03T13:53:51.439Z,3.38
2023-04-03T13:56:22.845Z,3.38
2023-04-03T13:59:02.448Z,3.38
2023-04-03T14:01:36.730Z,3.50
2023-04-03T14:04:13.610Z,3.60
2023-04-03T14:06:43.896Z,3.63
2023-04-03T14:09:13.308Z,3.90
2023-04-03T14:11:41.514Z,3.72
2023-04-03T14:14:15.559Z,3.70
2023-04-03T14:16:47.035Z,3.88
2023-04-03T14:19:21.477Z,3.88
2023-04-03T14:21:49.396Z,3.72
2023-04-03T14:24:20.198Z,3.88
2023-04-03T14:26:48.296Z,3.90
2023-04-03T14:29:16.383Z,4.20
2023-04-03T14:31:44.880Z,3.75
2023-04-03T14:34:15.890Z,3.55
2023-04-03T14:36:44.567Z,3.80
2023-04-03T14:39:14.201Z,3.90
2023-04-03T14:41:43.521Z,4.18
2023-04-03T14:44:11.462Z,4.13
2023-04-03T14:46:55.598Z,4.57
2023-04-03T14:49:33.021Z,4.20
2023-04-03T14:52:01.557Z,4.20
2023-04-03T14:54:30.246Z,4.13
2023-04-03T14:57:01.012Z,4.30
2023-04-03T14:59:31.246Z,4.50
2023-04-03T15:01:59.435Z,4.07
2023-04-03T15:04:33.898Z,4.68
2023-04-03T15:07:02.044Z,4.57
2023-04-03T15:09:30.113Z,4.93
2023-04-03T15:11:59.553Z,4.80
2023-04-03T15:14:36.410Z,5.03
2023-04-03T15:17:05.666Z,5.15
2023-04-03T15:19:33.970Z,4.88
2023-04-03T15:22:02.002Z,4.72
2023-04-03T15:24:30.034Z,4.80
2023-04-03T15:26:59.580Z,5.15
2023-04-03T15:29:27.709Z,5.53
2023-04-03T15:31:56.066Z,4.90
2023-04-03T15:34:24.055Z,5.15
2023-04-03T15:36:53.548Z,5.80
2023-04-03T15:39:21.906Z,5.30
2023-04-03T15:41:51.144Z,5.40
2023-04-03T15:44:20.826Z,5.65
2023-04-03T15:46:53.234Z,5.75
2023-04-03T15:49:21.596Z,5.60
2023-04-03T15:51:55.110Z,5.45
2023-04-03T15:54:24.890Z,5.13
2023-04-03T15:56:56.615Z,5.47
2023-04-03T15:59:26.336Z,5.70
2023-04-03T16:02:00.723Z,5.70
2023-04-03T16:04:28.981Z,5.32
2023-04-03T16:06:57.012Z,5.22
2023-04-03T16:09:24.972Z,5.70
2023-04-03T16:11:52.874Z,5.65
2023-04-03T16:14:22.738Z,5.38
2023-04-03T16:16:52.197Z,5.68
2023-04-03T16:19:20.560Z,5.38
2023-04-03T16:21:48.720Z,5.32
2023-04-03T16:24:25.473Z,5.25
2023-04-03T16:26:54.372Z,5.40
2023-04-03T16:29:22.367Z,5.03
2023-04-03T16:31:53.088Z,5.22
2023-04-03T16:34:21.437Z,5.68
2023-04-03T16:36:49.384Z,5.25
2023-04-03T16:39:17.553Z,5.40
2023-04-03T16:41:46.259Z,5.05
2023-04-03T16:44:14.743Z,4.90
2023-04-03T16:46:42.880Z,5.70
2023-04-03T16:49:12.177Z,5.82
2023-04-03T16:51:40.117Z,5.57
2023-04-03T16:54:10.729Z,5.20
2023-04-03T16:56:38.663Z,5.03
2023-04-03T16:59:06.647Z,4.70
2023-04-03T17:01:36.220Z,5.25
2023-04-03T17:04:04.157Z,5.05
2023-04-03T17:06:33.632Z,5.10
2023-04-03T17:09:01.581Z,5.03
2023-04-03T17:11:29.808Z,4.70
2023-04-03T17:13:57.717Z,4.93
2023-04-03T17:16:25.800Z,4.78
2023-04-03T17:18:54.051Z,4.88
2023-04-03T17:21:21.992Z,4.82
2023-04-03T17:23:55.107Z,5.13
2023-04-03T17:26:23.540Z,5.40
2023-04-03T17:28:51.802Z,5.10
2023-04-03T17:31:19.730Z,5.07
2023-04-03T17:33:47.632Z,5.20
2023-04-03T17:36:15.928Z,5.30
2023-04-03T17:38:43.883Z,5.17
2023-04-03T17:41:13.245Z,4.80
2023-04-03T17:43:41.311Z,4.87
2023-04-03T17:46:10.232Z,5.33
2023-04-03T17:48:39.349Z,4.87
2023-04-03T17:51:07.482Z,4.87
2023-04-03T17:53:35.542Z,5.00
2023-04-03T17:56:07.236Z,5.30
2023-04-03T17:58:36.666Z,5.47
2023-04-03T18:01:11.912Z,5.37
2023-04-03T18:03:40.092Z,4.70
2023-04-03T18:06:09.183Z,4.93
2023-04-03T18:08:37.710Z,4.90
2023-04-03T18:11:06.504Z,5.17
2023-04-03T18:13:37.712Z,4.77
2023-04-03T18:16:05.889Z,5.13
2023-04-03T18:18:33.945Z,4.77
2023-04-03T18:21:01.834Z,4.63
2023-04-03T18:23:29.963Z,5.13
2023-04-03T18:25:57.885Z,5.10
2023-04-03T18:28:27.060Z,5.17
2023-04-03T18:30:56.471Z,11.73
2023-04-03T18:33:24.379Z,17.60
2023-04-03T18:35:52.537Z,18.87
2023-04-03T18:38:20.467Z,12.67
2023-04-03T18:40:50.406Z,11.80
2023-04-03T18:43:18.736Z,9.47
2023-04-03T18:45:47.539Z,8.73
2023-04-03T18:48:16.982Z,7.07
2023-04-03T18:50:45.421Z,6.33
2023-04-03T18:53:13.675Z,6.43
2023-04-03T18:55:41.819Z,6.70
2023-04-03T18:58:09.891Z,6.43
2023-04-03T19:00:37.912Z,6.70
2023-04-03T19:03:06.243Z,6.63
2023-04-03T19:05:35.548Z,12.07
2023-04-03T19:08:03.451Z,12.83
2023-04-03T19:10:31.678Z,22.63
2023-04-03T19:12:59.557Z,16.60
2023-04-03T19:15:27.482Z,8.30
2023-04-03T19:17:55.427Z,6.60
2023-04-03T19:20:23.589Z,6.87
2023-04-03T19:22:54.012Z,6.03
2023-04-03T19:25:22.118Z,5.80
2023-04-03T19:27:50.436Z,4.80
2023-04-03T19:30:18.325Z,5.73
2023-04-03T19:32:46.416Z,5.30
2023-04-03T19:35:14.636Z,6.10
2023-04-03T19:37:42.683Z,5.20
2023-04-03T19:40:12.757Z,5.10
2023-04-03T19:42:42.983Z,6.00
2023-04-03T19:45:11.741Z,6.63
2023-04-03T19:47:39.706Z,6.10
2023-04-03T19:50:08.496Z,8.30
2023-04-03T19:52:36.377Z,7.87
2023-04-03T19:55:04.289Z,8.27
2023-04-03T19:57:33.596Z,8.73
2023-04-03T20:00:01.841Z,9.13
2023-04-03T20:02:29.775Z,9.27
2023-04-03T20:04:57.680Z,9.33
2023-04-03T20:07:25.582Z,8.90
2023-04-03T20:09:53.657Z,9.50
2023-04-03T20:12:21.570Z,8.17
2023-04-03T20:14:51.099Z,8.47
2023-04-03T20:17:19.031Z,8.53
2023-04-03T20:19:46.917Z,9.10
2023-04-03T20:22:14.823Z,8.83
2023-04-03T20:24:42.898Z,8.17
2023-04-03T20:27:10.926Z,8.40
2023-04-03T20:29:39.500Z,8.23
2023-04-03T20:32:10.551Z,8.10
2023-04-03T20:34:38.476Z,7.63
2023-04-03T20:37:06.740Z,7.97
2023-04-03T20:39:34.971Z,7.67
2023-04-03T20:42:03.481Z,7.77
2023-04-03T20:44:32.055Z,6.90
2023-04-03T20:47:00.041Z,7.97
2023-04-03T20:49:29.438Z,7.73
2023-04-03T20:51:57.309Z,7.37
2023-04-03T20:54:25.390Z,7.33
2023-04-03T20:56:53.251Z,7.33
2023-04-03T20:59:22.442Z,7.07
2023-04-03T21:01:50.477Z,7.60
2023-04-03T21:04:21.360Z,7.67
2023-04-03T21:07:27.446Z,7.43
2023-04-03T21:10:32.737Z,7.17
2023-04-03T21:13:37.875Z,7.47
2023-04-03T21:16:05.435Z,7.80
2023-04-03T21:19:07.172Z,7.53
2023-04-03T21:21:37.067Z,8.40
2023-04-03T21:24:06.819Z,8.10
2023-04-03T21:26:35.049Z,7.43
2023-04-03T21:29:02.951Z,8.00
2023-04-03T21:31:51.130Z,7.90
2023-04-03T21:34:20.914Z,8.37
2023-04-03T21:36:49.960Z,8.87
2023-04-03T21:39:18.050Z,8.03
2023-04-03T21:41:46.299Z,8.27
2023-04-03T21:44:14.153Z,9.40
2023-04-03T21:46:42.304Z,8.73
2023-04-03T21:49:10.193Z,8.73
2023-04-03T21:51:39.998Z,8.57
2023-04-03T21:54:07.980Z,8.73
2023-04-03T21:56:35.847Z,8.70
2023-04-03T21:59:03.953Z,8.30
2023-04-03T22:01:32.489Z,8.00
2023-04-03T22:04:01.766Z,7.87
2023-04-03T22:06:29.936Z,7.63
2023-04-03T22:08:59.271Z,8.43
2023-04-03T22:11:27.241Z,8.03
2023-04-03T22:13:55.525Z,8.47
2023-04-03T22:16:23.993Z,7.97
2023-04-03T22:18:52.847Z,8.47
2023-04-03T22:21:22.399Z,8.73
2023-04-03T22:23:50.628Z,8.30
2023-04-03T22:26:19.894Z,8.60
2023-04-03T22:28:48.027Z,8.93
2023-04-03T22:31:16.424Z,8.20
2023-04-03T22:33:45.127Z,8.57
2023-04-03T22:36:13.830Z,8.57
2023-04-03T22:38:43.417Z,9.27
2023-04-03T22:41:11.876Z,8.23
2023-04-03T22:43:41.523Z,7.97
2023-04-03T22:46:10.276Z,8.27
2023-04-03T22:48:38.653Z,7.70
2023-04-03T22:51:08.518Z,8.37
2023-04-03T22:53:36.717Z,6.93
2023-04-03T22:56:08.372Z,7.53
2023-04-03T22:58:36.886Z,7.37
2023-04-03T23:01:08.029Z,7.50
2023-04-03T23:03:36.201Z,7.10
2023-04-03T23:06:04.172Z,7.53
2023-04-03T23:08:32.670Z,7.17
2023-04-03T23:11:00.711Z,7.23
2023-04-03T23:13:28.703Z,7.13
2023-04-03T23:15:56.729Z,7.00
2023-04-03T23:18:26.099Z,7.20
2023-04-03T23:20:55.034Z,6.57
2023-04-03T23:23:23.695Z,6.33
2023-04-03T23:25:54.846Z,6.83
2023-04-03T23:28:22.892Z,6.37
2023-04-03T23:30:51.417Z,5.73
2023-04-03T23:33:19.283Z,6.73
2023-04-03T23:35:49.242Z,6.83
2023-04-03T23:38:17.682Z,6.27
2023-04-03T23:40:45.959Z,6.37
2023-04-03T23:43:13.924Z,6.60
2023-04-03T23:45:41.908Z,6.53
2023-04-03T23:48:10.001Z,6.37
2023-04-03T23:50:38.408Z,6.67
2023-04-03T23:53:08.583Z,6.40
2023-04-03T23:55:36.727Z,6.67
2023-04-03T23:58:04.651Z,6.73
